Hauptseite
METAR-TAF:

METAR-TAF

Flughäfen :

Dansville Municipal Airport

Dansville, New York, Vereinigte Staaten

Breite: 42-34-10N, Länge: 077-42-52W, Höhe: 201 m

Beobachtung

Neuester Wetterbericht von vor 51 Minuten, um 21:54 UTC
Wind 10 kt aus Süd/Südost, Böen bis zu 17 kt
Temperatur 8°C
Luftfeuchtigkeit 76%
Luftdruck 1001 hPa
Sichtweite: 16.1 km
Geschlossene Wolkendecke in der Höhe von 9500 ft
Leichtregen

METAR: KDSV 092154Z AUTO 16010G17KT 10SM -RA OVC095 08/04 A2956 RMK AO2 RAB00E18B34 SLP022 P0001 T00780044

Zeit: 17:45 (22:45 UTC)


TAF: fehlend

Wetterbeobachtungen und Prognosen von mehr als 4000 Flughäfen (METAR und TAF Bericht).

Die verfügbaren Stationen werden durch gelbe und rote Markierungen auf der Karte dargestellt.

Führen Sie die Maus auf sie, um den Namen der Station zu sehen.

Darauf klicken, um die Beobachtung von Wetterbeobachtungen und Prognosen zu sehen.

Um die Karte zu ändern : klicken Sie auf den grünen Tasten mit einem schwarzen Kreuz Zum Vergrößern, auf den grünen Button mit einem Gedankenstrich zu verkleinern, oder auf die grünen Pfeile für benachbarte Karten.


METAR-TAF: